createdAt,value
2023-03-18T00:00:35.304Z,33.44
2023-03-18T00:03:43.232Z,32.24
2023-03-18T00:06:49.917Z,33.72
2023-03-18T00:09:56.817Z,33.98
2023-03-18T00:13:04.683Z,35.38
2023-03-18T00:16:15.340Z,33.97
2023-03-18T00:19:21.386Z,35.87
2023-03-18T00:22:28.618Z,37.63
2023-03-18T00:25:34.560Z,39.52
2023-03-18T00:28:46.647Z,39.21
2023-03-18T00:31:56.438Z,36.48
2023-03-18T00:35:06.358Z,34.58
2023-03-18T00:38:20.963Z,34.38
2023-03-18T00:41:29.404Z,34.12
2023-03-18T00:44:43.600Z,33.14
2023-03-18T00:47:53.952Z,35.11
2023-03-18T00:51:00.854Z,35.83
2023-03-18T00:54:19.932Z,36.45
2023-03-18T00:57:27.613Z,35.39
2023-03-18T01:00:35.848Z,35.46
2023-03-18T01:03:47.921Z,35.66
2023-03-18T01:06:54.635Z,37.00
2023-03-18T01:10:00.521Z,38.09
2023-03-18T01:13:07.249Z,39.20
2023-03-18T01:16:18.080Z,39.59
2023-03-18T01:19:29.449Z,40.46
2023-03-18T01:22:36.246Z,41.64
2023-03-18T01:25:43.577Z,42.38
2023-03-18T01:28:51.053Z,42.69
2023-03-18T01:32:10.918Z,43.54
2023-03-18T01:35:20.507Z,43.01
2023-03-18T01:38:34.845Z,43.48
2023-03-18T01:42:00.121Z,42.65
2023-03-18T01:45:24.928Z,42.33
2023-03-18T01:48:42.751Z,40.29
2023-03-18T01:52:00.633Z,39.71
2023-03-18T01:55:12.876Z,40.14
2023-03-18T01:58:25.714Z,39.89
2023-03-18T02:01:38.361Z,38.18
2023-03-18T02:04:50.949Z,38.52
2023-03-18T02:08:06.941Z,38.32
2023-03-18T02:11:14.439Z,37.72
2023-03-18T02:14:26.878Z,37.73
2023-03-18T02:17:40.386Z,37.66
2023-03-18T02:21:17.045Z,37.20
2023-03-18T02:24:48.360Z,37.89
2023-03-18T02:28:11.689Z,36.91
2023-03-18T02:31:21.244Z,37.16
2023-03-18T02:34:29.638Z,38.51
2023-03-18T02:37:37.405Z,38.78
2023-03-18T02:40:46.173Z,39.71
2023-03-18T02:44:01.065Z,40.34
2023-03-18T02:47:23.803Z,39.84
2023-03-18T02:50:30.812Z,40.52
2023-03-18T02:54:04.201Z,40.44
2023-03-18T02:57:16.199Z,41.33
2023-03-18T03:00:28.471Z,42.24
2023-03-18T03:03:42.594Z,42.93
2023-03-18T03:06:51.687Z,43.72
2023-03-18T03:10:05.250Z,45.54
2023-03-18T03:13:13.710Z,45.51
2023-03-18T03:16:24.969Z,45.60
2023-03-18T03:19:31.122Z,46.35
2023-03-18T03:22:51.575Z,46.21
2023-03-18T03:26:04.076Z,47.48
2023-03-18T03:29:12.811Z,45.54
2023-03-18T03:32:24.899Z,44.18
2023-03-18T03:35:32.645Z,42.98
2023-03-18T03:38:38.839Z,42.29
2023-03-18T03:41:46.473Z,42.54
2023-03-18T03:44:55.140Z,40.37
2023-03-18T03:48:15.697Z,40.06
2023-03-18T03:51:24.126Z,39.37
2023-03-18T03:54:31.703Z,39.56
2023-03-18T03:57:40.008Z,38.17
2023-03-18T04:00:46.770Z,37.70
2023-03-18T04:03:58.168Z,38.58
2023-03-18T04:07:05.383Z,37.85
2023-03-18T04:10:15.179Z,35.98
2023-03-18T04:13:22.775Z,35.46
2023-03-18T04:16:29.541Z,35.49
2023-03-18T04:19:39.953Z,35.32
2023-03-18T04:22:47.070Z,34.44
2023-03-18T04:25:55.044Z,35.18
2023-03-18T04:29:01.202Z,34.46
2023-03-18T04:32:11.123Z,34.10
2023-03-18T04:35:21.712Z,33.85
2023-03-18T04:38:30.789Z,33.64
2023-03-18T04:41:37.692Z,33.97
2023-03-18T04:44:45.928Z,33.96
2023-03-18T04:47:53.079Z,33.75
2023-03-18T04:51:08.395Z,34.08
2023-03-18T04:54:15.396Z,33.98
2023-03-18T04:57:22.621Z,33.90
2023-03-18T05:00:35.445Z,34.10
2023-03-18T05:03:55.465Z,34.60
2023-03-18T05:07:07.384Z,34.86
2023-03-18T05:10:19.089Z,34.96
2023-03-18T05:13:25.489Z,35.23
2023-03-18T05:16:37.474Z,34.99
2023-03-18T05:19:44.259Z,35.18
2023-03-18T05:22:58.459Z,35.74
2023-03-18T05:26:20.857Z,34.57
2023-03-18T05:29:27.935Z,33.88
2023-03-18T05:32:43.653Z,32.89
2023-03-18T05:35:51.148Z,32.99
2023-03-18T05:39:03.503Z,32.21
2023-03-18T05:42:11.817Z,32.20
2023-03-18T05:45:22.557Z,31.75
2023-03-18T05:48:36.414Z,31.80
2023-03-18T05:51:44.998Z,32.30
2023-03-18T05:54:59.501Z,33.13
2023-03-18T05:58:10.385Z,32.78
2023-03-18T06:01:23.009Z,32.69
2023-03-18T06:04:29.507Z,32.68
2023-03-18T06:07:36.896Z,32.61
2023-03-18T06:11:00.761Z,32.07
2023-03-18T06:14:11.990Z,32.45
2023-03-18T06:17:18.317Z,32.63
2023-03-18T06:20:25.403Z,32.29
2023-03-18T06:23:31.936Z,33.07
2023-03-18T06:26:41.726Z,32.42
2023-03-18T06:29:48.206Z,34.94
2023-03-18T06:32:58.096Z,35.61
2023-03-18T06:36:10.832Z,40.36
2023-03-18T06:39:30.189Z,40.98
2023-03-18T06:42:44.855Z,41.92
2023-03-18T06:45:59.750Z,40.41
2023-03-18T06:49:22.679Z,40.09
2023-03-18T06:52:40.696Z,39.93
2023-03-18T06:56:00.364Z,40.15
2023-03-18T06:59:28.885Z,40.16
2023-03-18T07:02:39.439Z,40.97
2023-03-18T07:05:47.914Z,41.04
2023-03-18T07:08:55.340Z,41.17
2023-03-18T07:12:03.574Z,43.18
2023-03-18T07:15:14.945Z,43.12
2023-03-18T07:18:21.906Z,42.77
2023-03-18T07:21:28.204Z,41.51
2023-03-18T07:24:36.175Z,41.10
2023-03-18T07:27:42.492Z,39.60
2023-03-18T07:30:54.052Z,39.45
2023-03-18T07:34:00.804Z,38.67
2023-03-18T07:37:17.830Z,38.38
2023-03-18T07:40:26.421Z,38.41
2023-03-18T07:43:33.081Z,38.32
2023-03-18T07:46:41.693Z,37.60
2023-03-18T07:49:48.646Z,37.90
2023-03-18T07:52:55.190Z,36.76
2023-03-18T07:56:08.403Z,36.16
2023-03-18T07:59:16.107Z,34.90
2023-03-18T08:02:28.418Z,33.39
2023-03-18T08:05:34.981Z,33.82
2023-03-18T08:08:44.891Z,33.10
2023-03-18T08:11:51.063Z,33.54
2023-03-18T08:14:58.217Z,33.68
2023-03-18T08:18:27.398Z,34.69
2023-03-18T08:21:50.890Z,32.62
2023-03-18T08:24:58.508Z,31.75
2023-03-18T08:28:12.352Z,31.40
2023-03-18T08:31:18.493Z,30.52
2023-03-18T08:34:28.100Z,31.05
2023-03-18T08:37:34.083Z,31.36
2023-03-18T08:40:48.524Z,31.27
2023-03-18T08:43:57.519Z,29.62
2023-03-18T08:47:04.441Z,30.84
2023-03-18T08:50:17.362Z,28.30
2023-03-18T08:53:24.520Z,23.77
2023-03-18T08:56:32.769Z,24.52
2023-03-18T08:59:44.802Z,24.23
2023-03-18T09:02:51.193Z,23.79
2023-03-18T09:06:00.794Z,19.81
2023-03-18T09:09:09.854Z,19.06
2023-03-18T09:12:19.583Z,17.51
2023-03-18T09:15:25.775Z,17.79
2023-03-18T09:18:32.867Z,17.06
2023-03-18T09:21:41.689Z,15.39
2023-03-18T09:24:48.569Z,20.55
2023-03-18T09:27:55.344Z,19.76
2023-03-18T09:31:02.812Z,18.54
2023-03-18T09:34:08.709Z,18.16
2023-03-18T09:37:25.688Z,20.97
2023-03-18T09:40:44.124Z,20.14
2023-03-18T09:44:14.974Z,17.42
2023-03-18T09:47:54.349Z,16.94
2023-03-18T09:51:20.030Z,16.42
2023-03-18T09:54:41.415Z,15.17
2023-03-18T09:57:54.588Z,14.34
2023-03-18T10:01:07.461Z,13.28
2023-03-18T10:04:23.790Z,12.93
2023-03-18T10:07:40.409Z,12.22
2023-03-18T10:10:52.610Z,10.48
2023-03-18T10:14:21.360Z,9.02
2023-03-18T10:17:35.838Z,9.47
2023-03-18T10:21:08.221Z,10.23
2023-03-18T10:24:38.277Z,10.10
2023-03-18T10:28:06.937Z,9.73
2023-03-18T10:31:29.939Z,9.50
2023-03-18T10:34:49.319Z,11.15
2023-03-18T10:38:06.202Z,10.05
2023-03-18T10:41:30.375Z,10.81
2023-03-18T10:44:45.802Z,10.27
2023-03-18T10:48:06.322Z,9.33
2023-03-18T10:51:24.874Z,9.96
2023-03-18T10:54:41.147Z,10.15
2023-03-18T10:57:48.068Z,10.63
2023-03-18T11:00:56.547Z,9.42
2023-03-18T11:04:11.466Z,9.84
2023-03-18T11:07:26.192Z,9.99
2023-03-18T11:10:40.053Z,11.95
2023-03-18T11:13:50.876Z,12.06
2023-03-18T11:17:06.492Z,11.44
2023-03-18T11:20:25.637Z,11.44
2023-03-18T11:23:56.275Z,12.06
2023-03-18T11:27:02.557Z,12.86
2023-03-18T11:30:33.667Z,12.05
2023-03-18T11:33:42.797Z,12.10
2023-03-18T11:36:59.222Z,13.19
2023-03-18T11:40:26.570Z,13.15
2023-03-18T11:43:33.471Z,13.57
2023-03-18T11:46:48.736Z,14.69
2023-03-18T11:49:59.661Z,10.65
2023-03-18T11:53:26.472Z,11.35
2023-03-18T11:56:43.700Z,11.84
2023-03-18T12:00:17.829Z,11.21
2023-03-18T12:04:08.097Z,10.64
2023-03-18T12:07:52.477Z,9.01
2023-03-18T12:11:14.839Z,9.12
2023-03-18T12:14:36.527Z,8.44
2023-03-18T12:18:04.520Z,8.02
2023-03-18T12:21:45.727Z,8.19
2023-03-18T12:25:30.922Z,8.19
2023-03-18T12:28:56.512Z,11.95
2023-03-18T12:32:26.740Z,9.52
2023-03-18T12:35:53.664Z,9.69
2023-03-18T12:39:31.219Z,9.83
2023-03-18T12:43:03.945Z,9.80
2023-03-18T12:46:29.475Z,10.44
2023-03-18T12:49:41.952Z,10.43
2023-03-18T12:52:57.959Z,11.82
2023-03-18T12:56:27.839Z,10.72
2023-03-18T12:59:53.957Z,8.47
2023-03-18T13:03:09.012Z,8.47
2023-03-18T13:06:26.826Z,8.23
2023-03-18T13:09:43.918Z,8.03
2023-03-18T13:12:56.218Z,8.17
2023-03-18T13:16:09.290Z,7.95
2023-03-18T13:19:16.127Z,7.86
2023-03-18T13:23:00.687Z,8.31
2023-03-18T13:26:24.529Z,8.10
2023-03-18T13:29:46.197Z,8.34
2023-03-18T13:33:37.494Z,8.60
2023-03-18T13:37:30.896Z,9.08
2023-03-18T13:41:22.627Z,9.42
2023-03-18T13:44:47.736Z,10.29
2023-03-18T13:48:08.842Z,9.04
2023-03-18T13:51:43.679Z,9.07
2023-03-18T13:54:51.826Z,8.66
2023-03-18T13:58:11.860Z,8.92
2023-03-18T14:01:36.763Z,8.79
2023-03-18T14:04:53.738Z,9.24
2023-03-18T14:08:45.118Z,9.43
2023-03-18T14:11:54.631Z,9.52
2023-03-18T14:15:08.265Z,8.86
2023-03-18T14:18:28.865Z,8.42
2023-03-18T14:21:52.621Z,8.89
2023-03-18T14:25:23.819Z,8.35
2023-03-18T14:28:31.973Z,9.16
2023-03-18T14:31:59.454Z,9.44
2023-03-18T14:35:30.082Z,9.71
2023-03-18T14:38:51.956Z,10.49
2023-03-18T14:42:06.180Z,10.81
2023-03-18T14:45:24.733Z,10.71
2023-03-18T14:48:35.585Z,9.37
2023-03-18T14:51:41.940Z,8.37
2023-03-18T14:54:58.077Z,8.08
2023-03-18T14:58:07.383Z,7.11
2023-03-18T15:01:26.056Z,8.28
2023-03-18T15:04:32.206Z,7.22
2023-03-18T15:07:47.740Z,6.00
2023-03-18T15:11:05.817Z,6.01
2023-03-18T15:14:26.271Z,6.63
2023-03-18T15:17:32.492Z,6.78
2023-03-18T15:20:40.596Z,7.15
2023-03-18T15:23:54.694Z,7.70
2023-03-18T15:27:14.680Z,8.39
2023-03-18T15:30:36.369Z,8.16
2023-03-18T15:33:44.176Z,7.45
2023-03-18T15:36:58.214Z,7.87
2023-03-18T15:40:31.273Z,7.93
2023-03-18T15:43:46.452Z,7.71
2023-03-18T15:46:54.786Z,7.81
2023-03-18T15:50:03.100Z,11.86
2023-03-18T15:53:25.101Z,14.11
2023-03-18T15:56:34.541Z,16.58
2023-03-18T15:59:44.269Z,17.05
2023-03-18T16:02:50.771Z,21.35
2023-03-18T16:06:01.223Z,20.11
2023-03-18T16:09:18.807Z,18.30
2023-03-18T16:12:29.991Z,21.28
2023-03-18T16:15:39.486Z,19.42
2023-03-18T16:18:46.928Z,17.71
2023-03-18T16:21:52.871Z,15.81
2023-03-18T16:24:59.945Z,16.68
2023-03-18T16:28:25.975Z,29.70
2023-03-18T16:31:42.336Z,35.05
2023-03-18T16:34:48.775Z,56.24
2023-03-18T16:37:57.090Z,63.73
2023-03-18T16:41:05.316Z,55.20
2023-03-18T16:44:19.470Z,54.24
2023-03-18T16:47:32.143Z,51.19
2023-03-18T16:50:45.064Z,39.96
2023-03-18T16:53:56.407Z,46.78
2023-03-18T16:57:08.373Z,57.28
2023-03-18T17:00:22.936Z,71.77
2023-03-18T17:03:35.305Z,75.92
2023-03-18T17:06:41.261Z,81.88
2023-03-18T17:09:48.148Z,72.64
2023-03-18T17:13:00.558Z,46.34
2023-03-18T17:16:08.228Z,40.15
2023-03-18T17:19:19.128Z,40.32
2023-03-18T17:22:29.689Z,43.97
2023-03-18T17:25:36.399Z,38.46
2023-03-18T17:28:49.531Z,33.70
2023-03-18T17:31:57.607Z,32.24
2023-03-18T17:35:17.866Z,35.31
2023-03-18T17:38:24.655Z,35.22
2023-03-18T17:41:32.572Z,38.89
2023-03-18T17:44:39.242Z,44.48
2023-03-18T17:47:46.102Z,49.54
2023-03-18T17:50:58.322Z,56.80
2023-03-18T17:54:05.946Z,59.22
2023-03-18T17:57:18.098Z,66.99
2023-03-18T18:00:29.311Z,79.84
2023-03-18T18:03:38.974Z,78.61
2023-03-18T18:06:50.149Z,69.40
2023-03-18T18:09:57.292Z,68.61
2023-03-18T18:13:04.946Z,112.59
2023-03-18T18:16:11.212Z,102.68
2023-03-18T18:19:18.872Z,88.39
2023-03-18T18:22:27.863Z,75.48
2023-03-18T18:25:35.956Z,62.05
2023-03-18T18:28:45.033Z,58.37
2023-03-18T18:31:52.471Z,61.49
2023-03-18T18:34:58.488Z,64.36
2023-03-18T18:38:08.208Z,66.46
2023-03-18T18:41:14.551Z,77.77
2023-03-18T18:44:22.007Z,68.65
2023-03-18T18:47:28.215Z,59.82
2023-03-18T18:50:35.804Z,57.86
2023-03-18T18:53:44.452Z,66.14
2023-03-18T18:56:51.434Z,78.37
2023-03-18T18:59:58.302Z,78.94
2023-03-18T19:03:05.996Z,90.03
2023-03-18T19:06:29.522Z,100.55
2023-03-18T19:09:39.395Z,107.87
2023-03-18T19:12:46.495Z,101.04
2023-03-18T19:15:58.395Z,96.82
2023-03-18T19:19:06.303Z,112.75
2023-03-18T19:22:18.345Z,123.04
2023-03-18T19:25:28.818Z,126.62
2023-03-18T19:28:59.724Z,118.02
2023-03-18T19:32:09.425Z,102.92
2023-03-18T19:35:17.358Z,95.05
2023-03-18T19:38:25.148Z,88.23
2023-03-18T19:41:34.566Z,99.97
2023-03-18T19:44:42.671Z,99.02
2023-03-18T19:47:50.068Z,89.14
2023-03-18T19:50:57.884Z,86.86
2023-03-18T19:54:31.725Z,95.70
2023-03-18T19:57:40.350Z,79.05
2023-03-18T20:00:47.811Z,77.27
2023-03-18T20:03:59.161Z,73.60
2023-03-18T20:07:08.484Z,60.85
2023-03-18T20:10:16.912Z,51.61
2023-03-18T20:13:27.242Z,47.42
2023-03-18T20:16:36.505Z,37.65
2023-03-18T20:19:43.314Z,35.56
2023-03-18T20:22:55.934Z,35.72
2023-03-18T20:26:02.994Z,35.68
2023-03-18T20:29:21.132Z,37.40
2023-03-18T20:32:28.414Z,42.77
2023-03-18T20:35:38.411Z,39.26
2023-03-18T20:38:48.344Z,42.29
2023-03-18T20:41:54.634Z,42.59
2023-03-18T20:45:04.321Z,42.41
2023-03-18T20:48:10.780Z,41.52
2023-03-18T20:51:25.406Z,43.89
2023-03-18T20:54:37.562Z,43.37
2023-03-18T20:57:44.292Z,45.03
2023-03-18T21:00:54.252Z,44.66
2023-03-18T21:04:02.570Z,45.32
2023-03-18T21:07:08.566Z,40.35
2023-03-18T21:10:21.416Z,36.88
2023-03-18T21:13:34.014Z,33.87
2023-03-18T21:16:43.584Z,32.30
2023-03-18T21:19:50.484Z,33.83
2023-03-18T21:22:58.035Z,40.33
2023-03-18T21:26:04.426Z,40.42
2023-03-18T21:29:11.076Z,40.22
2023-03-18T21:32:27.331Z,39.93
2023-03-18T21:35:34.611Z,42.87
2023-03-18T21:38:40.708Z,49.61
2023-03-18T21:41:47.550Z,47.73
2023-03-18T21:44:54.768Z,38.68
2023-03-18T21:48:04.164Z,32.18
2023-03-18T21:51:38.182Z,28.34
2023-03-18T21:54:45.890Z,25.80
2023-03-18T21:57:52.853Z,27.88
2023-03-18T22:01:02.710Z,30.39
2023-03-18T22:04:12.128Z,32.00
2023-03-18T22:07:21.912Z,31.25
2023-03-18T22:10:28.941Z,32.65
2023-03-18T22:13:36.235Z,33.67
2023-03-18T22:16:42.088Z,33.13
2023-03-18T22:19:52.308Z,33.20
2023-03-18T22:22:58.442Z,36.00
2023-03-18T22:26:05.140Z,35.94
2023-03-18T22:29:10.921Z,35.32
2023-03-18T22:32:40.677Z,35.52
2023-03-18T22:35:49.663Z,36.02
2023-03-18T22:38:56.536Z,36.55
2023-03-18T22:42:02.665Z,35.82
2023-03-18T22:45:22.810Z,38.90
2023-03-18T22:48:29.737Z,43.00
2023-03-18T22:51:44.987Z,45.49
2023-03-18T22:54:56.086Z,45.36
2023-03-18T22:58:02.837Z,46.80
2023-03-18T23:01:09.923Z,48.69
2023-03-18T23:04:19.708Z,50.83
2023-03-18T23:07:34.456Z,49.81
2023-03-18T23:10:42.348Z,48.67
2023-03-18T23:13:53.433Z,48.58
2023-03-18T23:17:00.137Z,48.42
2023-03-18T23:20:06.278Z,47.46
2023-03-18T23:23:16.442Z,45.27
2023-03-18T23:26:22.758Z,42.18
2023-03-18T23:29:29.483Z,38.07
2023-03-18T23:32:35.965Z,35.12
2023-03-18T23:35:44.232Z,32.38
2023-03-18T23:38:52.817Z,31.37
2023-03-18T23:41:59.826Z,30.43
2023-03-18T23:45:06.951Z,31.61
2023-03-18T23:48:13.685Z,33.28
2023-03-18T23:51:19.525Z,35.09
2023-03-18T23:54:29.212Z,34.07
2023-03-18T23:57:35.104Z,33.82
